Time;durP1;ratioP1;P1;durP2;ratioP2;P2;SDS_P1;SDS_P2;PMS_P1;PMS_P2;Temp;Humidity;BMP_temperature;BMP_pressure;BME280_temperature;BME280_humidity;BME280_pressure;Samples;Min_cycle;Max_cycle;Signal;HPM_P1;HPM_P2
2022/04/28 00:00:59;;;;;;;;;33.75;31.00;;;;;16.44;66.96;102139.94;5039750;28;45233;-78
2022/04/28 00:03:24;;;;;;;;;36.50;31.25;;;;;16.43;67.08;102150.59;5039430;28;46506;-78
2022/04/28 00:05:50;;;;;;;;;33.75;30.75;;;;;16.39;66.75;102140.78;5057185;28;45252;-78
2022/04/28 00:08:15;;;;;;;;;37.50;31.25;;;;;16.36;67.21;102147.00;5056260;28;60349;-78
2022/04/28 00:10:41;;;;;;;;;35.00;30.25;;;;;16.31;67.63;102143.41;5057431;28;67484;-77
2022/04/28 00:13:08;;;;;;;;;35.25;31.50;;;;;16.29;67.45;102146.91;5039603;28;45450;-78
2022/04/28 00:15:34;;;;;;;;;35.00;32.75;;;;;16.24;67.80;102150.47;5036746;28;45431;-78
2022/04/28 00:17:59;;;;;;;;;34.75;31.25;;;;;16.21;67.92;102155.75;5056190;28;45470;-79
2022/04/28 00:20:25;;;;;;;;;41.75;33.50;;;;;16.16;67.84;102146.81;5058241;28;45430;-79
2022/04/28 00:22:50;;;;;;;;;40.00;32.50;;;;;16.14;68.02;102151.25;5057755;28;45259;-79
2022/04/28 00:25:16;;;;;;;;;32.25;31.25;;;;;16.12;68.42;102144.09;5058160;28;45387;-78
2022/04/28 00:27:41;;;;;;;;;38.00;31.50;;;;;16.10;68.76;102138.78;5058268;28;45446;-78
2022/04/28 00:30:07;;;;;;;;;32.00;26.50;;;;;16.07;68.30;102133.41;5028566;28;45480;-80
2022/04/28 00:32:33;;;;;;;;;33.50;31.25;;;;;16.03;68.77;102126.25;5053435;28;45654;-78
2022/04/28 00:34:59;;;;;;;;;33.25;31.00;;;;;16.03;68.63;102138.69;5057169;28;45470;-78
2022/04/28 00:37:24;;;;;;;;;41.75;31.50;;;;;15.98;69.18;102128.00;5057873;28;45980;-78
2022/04/28 00:39:50;;;;;;;;;41.75;33.75;;;;;15.96;69.40;102135.06;5040818;28;45518;-80
2022/04/28 00:42:17;;;;;;;;;31.00;27.75;;;;;15.95;69.40;102136.84;5061227;28;45688;-79
2022/04/28 00:44:42;;;;;;;;;34.50;29.00;;;;;15.94;69.79;102134.19;5040189;28;45547;-78
2022/04/28 00:47:08;;;;;;;;;32.75;31.75;;;;;15.91;69.30;102134.13;5057104;28;64742;-78
2022/04/28 00:52:19;;;;;;;;;34.00;30.00;;;;;15.88;69.56;102142.13;5057486;28;45252;-78
2022/04/28 00:54:45;;;;;;;;;35.50;32.50;;;;;15.83;69.86;102133.19;5055858;28;45941;-78
2022/04/28 00:57:11;;;;;;;;;36.75;28.75;;;;;15.80;69.93;102141.13;5057427;28;45407;-78
2022/04/28 00:59:38;;;;;;;;;31.50;31.00;;;;;15.76;70.12;102134.88;5042760;28;45325;-79
2022/04/28 01:02:04;;;;;;;;;33.00;30.75;;;;;15.73;70.57;102137.53;5053032;28;47407;-78
2022/04/28 01:04:30;;;;;;;;;36.50;27.50;;;;;15.71;70.19;102137.50;5049202;28;45384;-78
2022/04/28 01:06:55;;;;;;;;;33.50;29.25;;;;;15.67;70.48;102134.78;5057620;28;45376;-80
2022/04/28 01:09:21;;;;;;;;;33.50;27.75;;;;;15.64;70.95;102135.63;5056508;28;47406;-78
2022/04/28 01:11:46;;;;;;;;;29.50;26.25;;;;;15.63;70.69;102136.53;5057006;28;46622;-78
2022/04/28 01:14:11;;;;;;;;;36.25;29.75;;;;;15.58;71.50;102138.19;5057164;28;45311;-78
2022/04/28 01:16:37;;;;;;;;;31.75;28.00;;;;;15.54;71.15;102122.19;5055615;28;66823;-80
2022/04/28 01:19:02;;;;;;;;;29.25;28.75;;;;;15.54;71.17;102133.72;5056918;28;45245;-79
2022/04/28 01:21:30;;;;;;;;;31.00;27.25;;;;;15.52;71.79;102135.47;5056091;28;69417;-79
2022/04/28 01:23:56;;;;;;;;;34.75;30.00;;;;;15.45;71.70;102129.19;5039167;28;46333;-78
2022/04/28 01:26:22;;;;;;;;;41.75;28.75;;;;;15.43;72.33;102122.94;5055371;28;45424;-77
2022/04/28 01:28:48;;;;;;;;;34.50;28.00;;;;;15.39;72.21;102120.22;5056796;28;45343;-81
2022/04/28 01:31:13;;;;;;;;;34.50;29.50;;;;;15.38;72.45;102126.44;5054619;28;45615;-78
2022/04/28 01:33:38;;;;;;;;;25.50;25.50;;;;;15.34;72.60;102120.19;5049132;28;45296;-78
2022/04/28 01:36:05;;;;;;;;;33.00;29.75;;;;;15.34;72.70;102124.59;5055542;28;65703;-77
2022/04/28 01:38:30;;;;;;;;;28.25;28.25;;;;;15.30;72.55;102121.03;5057229;28;45461;-79
2022/04/28 01:40:55;;;;;;;;;33.75;28.25;;;;;15.30;72.33;102128.13;5060744;28;45189;-78
2022/04/28 01:43:21;;;;;;;;;29.50;26.50;;;;;15.25;73.17;102129.81;5056909;28;45332;-78
2022/04/28 01:45:46;;;;;;;;;30.25;25.50;;;;;15.23;72.93;102126.22;5056979;28;45143;-78
2022/04/28 01:48:12;;;;;;;;;31.50;25.00;;;;;15.20;73.77;102125.34;5038881;28;45451;-80
2022/04/28 01:50:37;;;;;;;;;27.25;25.00;;;;;15.15;73.16;102129.69;5055148;28;67337;-79
2022/04/28 01:55:46;;;;;;;;;25.25;23.00;;;;;15.12;73.94;102126.09;5044602;28;45375;-80
2022/04/28 01:58:12;;;;;;;;;30.00;28.75;;;;;15.10;73.77;102128.75;5058324;28;56462;-78
2022/04/28 02:00:37;;;;;;;;;31.50;28.75;;;;;15.06;73.74;102123.34;5056130;28;46452;-78
2022/04/28 02:03:03;;;;;;;;;30.50;27.00;;;;;15.05;74.00;102129.56;5056450;28;45251;-78
2022/04/28 02:05:29;;;;;;;;;28.50;25.00;;;;;15.03;74.02;102140.19;5030562;28;45563;-78
2022/04/28 02:07:54;;;;;;;;;27.75;25.00;;;;;15.01;74.17;102146.34;5031275;28;45347;-78
2022/04/28 02:10:20;;;;;;;;;30.00;26.75;;;;;14.97;74.58;102142.78;5055804;28;62570;-80
2022/04/28 02:12:45;;;;;;;;;31.00;27.25;;;;;14.92;74.65;102140.03;5056133;28;45418;-78
2022/04/28 02:15:11;;;;;;;;;32.25;27.25;;;;;14.90;74.91;102143.53;5056201;28;45881;-78
2022/04/28 02:17:38;;;;;;;;;28.50;25.75;;;;;14.89;75.09;102139.09;5055750;28;64420;-78
2022/04/28 02:20:06;;;;;;;;;29.50;25.50;;;;;14.84;74.62;102144.34;5056658;28;46881;-78
2022/04/28 02:22:32;;;;;;;;;37.75;26.00;;;;;14.82;74.85;102139.88;5056097;28;45130;-78
2022/04/28 02:24:57;;;;;;;;;30.25;27.75;;;;;14.80;75.20;102146.94;5056396;28;45322;-78
2022/04/28 02:27:24;;;;;;;;;33.50;27.00;;;;;14.76;75.23;102145.13;5040795;28;45325;-78
2022/04/28 02:29:52;;;;;;;;;25.50;22.00;;;;;14.72;76.06;102149.50;5059293;28;46692;-79
2022/04/28 02:32:18;;;;;;;;;27.50;23.50;;;;;14.70;75.74;102148.59;5050210;28;45389;-78
2022/04/28 02:34:43;;;;;;;;;29.50;24.00;;;;;14.66;76.13;102149.41;5041629;28;45438;-78
2022/04/28 02:37:09;;;;;;;;;29.00;25.25;;;;;14.65;76.13;102158.25;5059222;28;45307;-78
2022/04/28 02:39:34;;;;;;;;;29.00;25.50;;;;;14.60;75.92;102154.63;5057904;28;45653;-79
2022/04/28 02:41:59;;;;;;;;;30.75;25.75;;;;;14.58;75.99;102156.34;5063474;28;52809;-78
2022/04/28 02:44:25;;;;;;;;;29.75;25.50;;;;;14.56;75.99;102164.31;5042032;28;45506;-78
2022/04/28 02:46:50;;;;;;;;;27.75;24.75;;;;;14.54;77.01;102160.75;5041812;28;45663;-78
2022/04/28 02:49:16;;;;;;;;;25.75;21.75;;;;;14.51;76.43;102158.03;5058502;28;74042;-80
2022/04/28 02:51:41;;;;;;;;;26.00;26.00;;;;;14.50;76.50;102166.88;5059546;28;45192;-79
2022/04/28 02:54:07;;;;;;;;;32.75;28.00;;;;;14.48;76.98;102157.97;5058904;28;57300;-78
2022/04/28 02:56:33;;;;;;;;;30.25;25.75;;;;;14.47;77.10;102165.88;5059424;28;45241;-78
2022/04/28 02:58:59;;;;;;;;;29.50;27.50;;;;;14.42;77.51;102157.81;5042373;28;46199;-78
2022/04/28 03:01:25;;;;;;;;;27.25;25.00;;;;;14.42;77.32;102171.13;5058183;28;61731;-79
2022/04/28 03:03:51;;;;;;;;;35.25;28.50;;;;;14.39;77.68;102171.09;5059088;28;45578;-79
2022/04/28 03:11:45;;;;;;;;;30.00;27.50;;;;;14.31;77.86;102168.28;5058969;28;46123;-78
2022/04/28 03:14:12;;;;;;;;;34.75;31.50;;;;;14.29;77.91;102171.78;5058619;28;56113;-77
2022/04/28 03:16:37;;;;;;;;;29.25;25.75;;;;;14.25;77.95;102170.84;5059307;28;45557;-80
2022/04/28 03:19:03;;;;;;;;;27.75;25.25;;;;;14.23;78.00;102167.28;5058897;28;46664;-78
2022/04/28 03:21:29;;;;;;;;;30.75;25.75;;;;;14.22;78.34;102170.81;5041129;28;45308;-78
2022/04/28 03:23:54;;;;;;;;;30.25;28.25;;;;;14.21;78.55;102170.75;5057920;28;45271;-78
2022/04/28 03:26:19;;;;;;;;;32.25;26.25;;;;;14.19;78.68;102165.41;5058043;28;57007;-78
2022/04/28 03:28:45;;;;;;;;;28.00;25.25;;;;;14.16;78.42;102163.59;5058082;28;65267;-80
2022/04/28 03:31:10;;;;;;;;;35.00;31.25;;;;;14.16;78.62;102168.00;5040328;28;45344;-78
2022/04/28 03:33:36;;;;;;;;;31.75;30.00;;;;;14.13;78.70;102174.19;5058251;28;46522;-78
2022/04/28 03:36:02;;;;;;;;;33.50;29.00;;;;;14.10;78.91;102170.56;5058474;28;49019;-80
2022/04/28 03:38:27;;;;;;;;;35.00;32.00;;;;;14.08;79.36;102180.28;5057703;28;47891;-78
2022/04/28 03:40:52;;;;;;;;;40.25;27.50;;;;;14.04;79.22;102173.13;5062805;28;45181;-81
2022/04/28 03:43:18;;;;;;;;;36.75;28.50;;;;;14.03;79.45;102176.63;5058907;28;45348;-79
2022/04/28 03:45:44;;;;;;;;;33.00;26.75;;;;;14.02;79.73;102175.75;5058988;28;45438;-78
2022/04/28 03:48:10;;;;;;;;;27.50;26.50;;;;;13.98;79.42;102171.25;5058702;28;45635;-77
2022/04/28 03:50:37;;;;;;;;;37.25;30.00;;;;;13.97;79.74;102176.53;5040167;28;45755;-79
2022/04/28 03:53:03;;;;;;;;;33.50;30.75;;;;;13.93;80.25;102166.72;5058440;28;45311;-78
2022/04/28 03:55:28;;;;;;;;;34.50;30.50;;;;;13.92;80.14;102179.09;5058606;28;45283;-79
2022/04/28 03:57:54;;;;;;;;;33.50;29.75;;;;;13.88;80.26;102177.25;5041601;28;46021;-78
2022/04/28 04:00:21;;;;;;;;;40.00;33.75;;;;;13.88;80.95;102179.91;5058580;28;45465;-79
2022/04/28 04:02:47;;;;;;;;;27.75;24.50;;;;;13.84;80.66;102184.25;5040660;28;45247;-80
2022/04/28 04:05:13;;;;;;;;;35.75;30.00;;;;;13.82;80.86;102188.63;5057536;28;45185;-78
2022/04/28 04:07:38;;;;;;;;;37.25;32.00;;;;;13.80;80.85;102182.41;5056654;28;45329;-78
2022/04/28 04:10:05;;;;;;;;;39.25;29.75;;;;;13.78;81.00;102185.91;5040377;28;45544;-80
2022/04/28 04:12:31;;;;;;;;;34.75;31.50;;;;;13.77;81.53;102185.00;5040558;28;45350;-78
2022/04/28 04:14:56;;;;;;;;;38.00;32.50;;;;;13.76;81.17;102187.63;5020753;28;45320;-78
2022/04/28 04:17:21;;;;;;;;;38.25;25.75;;;;;13.75;81.35;102185.84;5029976;28;46026;-80
2022/04/28 04:19:47;;;;;;;;;34.75;32.50;;;;;13.73;81.37;102185.78;5057443;28;45451;-78
2022/04/28 04:22:13;;;;;;;;;30.75;27.25;;;;;13.72;81.71;102185.78;5058256;28;45331;-80
2022/04/28 04:24:40;;;;;;;;;29.00;28.00;;;;;13.70;81.82;102198.13;5040201;28;45647;-78
2022/04/28 04:27:05;;;;;;;;;31.75;26.75;;;;;13.70;82.25;102198.13;5057761;28;46574;-78
2022/04/28 04:29:31;;;;;;;;;35.75;30.50;;;;;13.69;82.16;102201.63;5057351;28;47002;-78
2022/04/28 04:34:40;;;;;;;;;22.75;22.25;;;;;13.63;82.71;102194.44;5052238;28;45459;-78
2022/04/28 04:37:05;;;;;;;;;32.00;27.75;;;;;13.64;82.29;102204.22;5057713;28;47419;-78
2022/04/28 04:39:31;;;;;;;;;31.50;29.50;;;;;13.63;82.75;102207.72;5057678;28;45226;-78
2022/04/28 04:41:56;;;;;;;;;37.50;30.00;;;;;13.60;82.80;102197.06;5068447;28;45158;-80
2022/04/28 04:44:22;;;;;;;;;31.25;30.50;;;;;13.60;83.00;102205.00;5057989;28;45256;-77
2022/04/28 04:46:48;;;;;;;;;40.75;31.25;;;;;13.59;83.15;102214.72;5056224;28;45480;-76
2022/04/28 04:49:13;;;;;;;;;34.75;31.25;;;;;13.59;82.99;102205.88;5057181;28;45266;-78
2022/04/28 04:51:38;;;;;;;;;36.50;31.00;;;;;13.56;83.26;102214.66;5058011;28;45207;-79
2022/04/28 04:54:04;;;;;;;;;32.25;30.75;;;;;13.55;83.66;102204.91;5057548;28;45583;-78
2022/04/28 04:56:29;;;;;;;;;35.75;30.75;;;;;13.54;83.92;102210.19;5057323;28;51922;-78
2022/04/28 04:58:55;;;;;;;;;41.75;35.25;;;;;13.54;84.28;102207.53;5043261;28;45398;-79
2022/04/28 05:01:20;;;;;;;;;34.25;29.25;;;;;13.53;84.17;102208.38;5057980;28;45462;-77
2022/04/28 05:06:11;;;;;;;;;45.33;33.33;;;;;13.53;84.08;102211.03;5210105;22;74121;-78
2022/04/28 05:08:36;;;;;;;;;36.50;34.50;;;;;13.54;84.16;102218.16;5096820;27;45572;-79
2022/04/28 05:11:01;;;;;;;;;41.50;33.50;;;;;13.53;84.28;102222.56;5097105;27;45333;-77
2022/04/28 05:13:27;;;;;;;;;37.25;32.00;;;;;13.55;84.51;102226.16;5098009;27;45312;-76
2022/04/28 05:15:53;;;;;;;;;37.75;33.00;;;;;13.56;84.65;102221.72;5098334;27;46574;-80
2022/04/28 05:18:18;;;;;;;;;41.25;32.75;;;;;13.54;85.12;102240.28;5101307;27;45481;-76
2022/04/28 05:20:43;;;;;;;;;42.25;31.00;;;;;13.56;84.93;102233.22;5099175;27;48784;-76
2022/04/28 05:23:09;;;;;;;;;33.50;29.00;;;;;13.56;85.08;102242.97;5099583;27;45507;-76
2022/04/28 05:25:34;;;;;;;;;39.75;35.75;;;;;13.57;85.44;102245.63;5101252;27;50207;-76
2022/04/28 05:28:00;;;;;;;;;42.75;32.75;;;;;13.55;85.02;102238.53;5097731;27;45330;-77
2022/04/28 05:30:25;;;;;;;;;42.75;35.25;;;;;13.56;85.50;102249.16;5097880;27;45337;-76
2022/04/28 05:32:50;;;;;;;;;40.00;33.00;;;;;13.57;85.38;102255.34;5099202;27;45554;-77
2022/04/28 05:35:16;;;;;;;;;40.50;33.75;;;;;13.57;86.15;102252.69;5112601;27;46632;-78
2022/04/28 05:37:42;;;;;;;;;37.75;33.50;;;;;13.59;85.59;102261.63;5111127;27;45315;-79
2022/04/28 05:40:08;;;;;;;;;34.25;32.75;;;;;13.62;85.66;102257.25;5114962;27;45137;-77
2022/04/28 05:48:02;;;;;;;;;39.00;33.25;;;;;13.67;85.91;102264.41;5112486;27;45496;-78
2022/04/28 05:50:27;;;;;;;;;37.00;33.25;;;;;13.67;85.94;102261.75;5117940;27;45209;-77
2022/04/28 05:52:53;;;;;;;;;39.25;31.75;;;;;13.70;86.30;102260.06;5115383;27;45420;-78
2022/04/28 05:55:18;;;;;;;;;46.00;36.67;;;;;13.72;86.18;102270.72;5098458;27;46698;-76
2022/04/28 05:57:43;;;;;;;;;41.75;35.75;;;;;13.74;86.39;102271.63;5115527;27;60742;-77
2022/04/28 06:00:09;;;;;;;;;47.25;36.00;;;;;13.78;86.34;102273.50;5100717;27;45543;-79
2022/04/28 06:02:35;;;;;;;;;42.75;33.50;;;;;13.79;86.03;102278.84;5100247;27;45370;-76
2022/04/28 06:05:01;;;;;;;;;40.00;34.50;;;;;13.83;86.40;102279.81;5114432;27;45841;-77
2022/04/28 06:07:26;;;;;;;;;37.00;32.50;;;;;13.84;86.32;102285.13;5119027;27;54894;-76
2022/04/28 06:09:52;;;;;;;;;37.75;32.75;;;;;13.85;86.03;102283.41;5108101;27;45466;-77
2022/04/28 06:12:17;;;;;;;;;43.00;35.00;;;;;13.87;86.66;102289.63;5106314;27;45454;-79
2022/04/28 06:14:43;;;;;;;;;43.75;35.50;;;;;13.90;86.25;102292.31;5090058;27;47805;-77
2022/04/28 06:17:09;;;;;;;;;42.25;35.25;;;;;13.92;86.81;102287.97;5102483;27;45459;-78
2022/04/28 06:19:34;;;;;;;;;44.75;35.50;;;;;13.96;86.62;102280.97;5100723;27;45429;-78
2022/04/28 06:22:00;;;;;;;;;44.25;35.00;;;;;13.96;86.34;102287.19;5105140;27;45289;-77
2022/04/28 06:24:25;;;;;;;;;40.00;34.00;;;;;14.01;86.87;102290.81;5103209;27;45767;-78
2022/04/28 06:26:51;;;;;;;;;48.50;38.00;;;;;14.06;86.24;102301.50;5100992;27;45407;-77
2022/04/28 06:29:16;;;;;;;;;41.00;33.00;;;;;14.10;86.20;102300.72;5098563;27;45338;-78
2022/04/28 06:31:42;;;;;;;;;37.75;33.00;;;;;14.14;86.12;102308.78;5115065;27;45504;-77
2022/04/28 06:34:08;;;;;;;;;51.75;37.25;;;;;14.21;86.12;102314.22;5093290;27;46780;-79
2022/04/28 06:36:34;;;;;;;;;36.25;34.25;;;;;14.25;86.24;102297.47;5100058;27;45349;-85
2022/04/28 06:39:02;;;;;;;;;44.25;35.00;;;;;14.31;86.02;102311.75;5083563;27;45499;-79
2022/04/28 06:41:28;;;;;;;;;40.75;34.25;;;;;14.37;86.21;102297.69;5102280;27;45520;-78
2022/04/28 06:43:53;;;;;;;;;43.25;35.50;;;;;14.41;86.07;102302.22;5081252;27;48511;-80
2022/04/28 06:46:18;;;;;;;;;38.75;34.00;;;;;14.45;85.71;102306.72;5103296;27;45432;-77
2022/04/28 06:48:47;;;;;;;;;42.75;35.00;;;;;14.48;85.96;102306.78;5104257;27;45522;-79
2022/04/28 06:51:12;;;;;;;;;46.25;35.00;;;;;14.54;86.39;102308.66;5108459;27;45338;-81
2022/04/28 06:53:38;;;;;;;;;42.25;33.50;;;;;14.56;85.95;102318.47;5103156;27;46057;-78
2022/04/28 06:56:04;;;;;;;;;40.25;35.75;;;;;14.61;86.79;102314.13;5095585;27;45536;-78
2022/04/28 06:58:29;;;;;;;;;48.50;36.00;;;;;14.64;86.24;102319.50;5103147;27;45506;-80
2022/04/28 07:00:55;;;;;;;;;46.75;35.00;;;;;14.72;85.72;102326.72;5112651;27;45408;-80
2022/04/28 07:03:20;;;;;;;;;44.00;36.75;;;;;14.76;86.26;102320.63;5112186;27;45627;-81
2022/04/28 07:05:46;;;;;;;;;50.75;38.25;;;;;14.80;86.11;102314.44;5079356;27;45304;-77
2022/04/28 07:08:11;;;;;;;;;44.75;35.75;;;;;14.85;85.96;102318.97;5104689;27;45506;-79
2022/04/28 07:10:38;;;;;;;;;46.50;38.00;;;;;14.90;86.04;102314.63;5113436;27;45521;-78
2022/04/28 07:13:03;;;;;;;;;40.00;35.25;;;;;15.00;86.00;102318.34;5111191;27;47552;-79
2022/04/28 07:15:29;;;;;;;;;47.00;36.75;;;;;15.08;86.02;102319.38;5109135;27;45496;-79
2022/04/28 07:17:54;;;;;;;;;50.50;38.25;;;;;15.16;85.83;102323.03;5112079;27;45322;-77
2022/04/28 07:20:20;;;;;;;;;50.00;37.50;;;;;15.25;85.82;102316.09;5114623;27;45536;-79
2022/04/28 07:22:45;;;;;;;;;42.50;34.50;;;;;15.36;85.60;102319.81;5110309;27;46810;-79
2022/04/28 07:25:11;;;;;;;;;40.00;33.00;;;;;15.44;85.67;102313.72;5107951;27;45832;-79
2022/04/28 07:27:36;;;;;;;;;48.50;34.75;;;;;15.57;84.39;102319.25;5105956;27;45458;-80
2022/04/28 07:30:03;;;;;;;;;42.25;35.00;;;;;15.66;84.82;102322.06;5111871;27;45334;-81
2022/04/28 07:32:28;;;;;;;;;52.00;41.50;;;;;15.75;84.33;102323.94;5087921;27;46630;-81
2022/04/28 07:34:53;;;;;;;;;43.75;34.50;;;;;15.80;84.13;102312.47;5096128;27;45526;-82
2022/04/28 07:37:19;;;;;;;;;41.50;34.00;;;;;15.92;83.68;102322.38;5094535;27;45440;-82
2022/04/28 07:39:44;;;;;;;;;47.50;38.50;;;;;16.01;83.72;102325.19;5107614;27;45517;-83
2022/04/28 07:42:10;;;;;;;;;42.25;35.00;;;;;16.07;83.62;102322.59;5110143;27;45582;-76
2022/04/28 07:44:36;;;;;;;;;43.25;37.75;;;;;16.20;83.31;102328.97;5105069;27;45370;-80
2022/04/28 07:47:01;;;;;;;;;47.25;39.25;;;;;16.27;82.73;102314.84;5103293;27;45534;-79
2022/04/28 07:49:27;;;;;;;;;41.00;34.00;;;;;16.34;83.65;102321.13;5108051;27;45404;-80
2022/04/28 07:51:52;;;;;;;;;45.50;36.25;;;;;16.40;82.54;102314.06;5110270;27;46319;-79
2022/04/28 07:54:17;;;;;;;;;41.25;35.00;;;;;16.51;82.81;102327.53;5112262;27;48429;-77
2022/04/28 07:56:45;;;;;;;;;48.00;38.75;;;;;16.59;82.37;102330.28;5113042;27;45361;-74
2022/04/28 07:59:11;;;;;;;;;49.75;39.75;;;;;16.67;81.54;102323.22;5115406;27;45997;-75
2022/04/28 08:01:37;;;;;;;;;45.50;38.00;;;;;16.74;81.51;102326.03;5111746;27;46816;-74
2022/04/28 08:04:02;;;;;;;;;42.25;35.00;;;;;16.78;81.66;102326.97;5111353;27;45297;-75
2022/04/28 08:06:28;;;;;;;;;44.25;36.75;;;;;16.86;80.88;102332.34;5113459;27;45524;-75
2022/04/28 08:08:53;;;;;;;;;39.00;32.50;;;;;16.92;80.70;102327.97;5111983;27;45389;-75
2022/04/28 08:11:18;;;;;;;;;44.25;35.25;;;;;16.97;80.94;102326.22;5100250;27;47143;-74
2022/04/28 08:13:44;;;;;;;;;41.50;36.00;;;;;17.03;79.96;102322.72;5111917;27;45449;-75
2022/04/28 08:16:09;;;;;;;;;41.75;35.00;;;;;17.06;80.64;102327.19;5112138;27;45276;-75
2022/04/28 08:18:37;;;;;;;;;43.50;35.50;;;;;17.11;80.23;102331.69;5115040;27;48851;-74
2022/04/28 08:21:03;;;;;;;;;45.25;36.75;;;;;17.19;80.08;102331.72;5108990;27;46531;-76
2022/04/28 08:23:29;;;;;;;;;38.25;32.50;;;;;17.25;80.51;102330.00;5109504;27;45437;-74
2022/04/28 08:25:54;;;;;;;;;40.00;35.50;;;;;17.35;80.00;102330.97;5111036;27;45516;-77
2022/04/28 08:28:20;;;;;;;;;42.50;35.75;;;;;17.41;79.99;102331.00;5109158;27;45513;-80
2022/04/28 08:30:45;;;;;;;;;41.25;33.25;;;;;17.49;79.58;102334.63;5111308;27;46766;-77
2022/04/28 08:33:11;;;;;;;;;41.75;34.25;;;;;17.60;78.89;102336.47;5111441;27;45402;-82
2022/04/28 08:35:36;;;;;;;;;45.00;34.25;;;;;17.65;79.17;102330.28;5078346;27;45559;-76
2022/04/28 08:38:02;;;;;;;;;44.00;35.75;;;;;17.77;78.63;102337.50;5113730;27;45573;-78
2022/04/28 08:40:27;;;;;;;;;39.75;35.00;;;;;17.85;78.21;102329.53;5106756;27;45588;-77
2022/04/28 08:42:54;;;;;;;;;38.50;32.00;;;;;17.94;78.34;102340.25;5106730;27;45586;-79
2022/04/28 08:45:27;;;;;;;;;41.50;33.25;;;;;18.03;78.03;102341.19;5096424;27;45472;-84
2022/04/28 08:47:53;;;;;;;;;43.75;34.25;;;;;18.14;77.26;102343.00;5113971;27;45324;-81
2022/04/28 08:50:22;;;;;;;;;35.75;33.00;;;;;18.22;77.53;102330.59;5110028;27;46449;-77
2022/04/28 08:52:48;;;;;;;;;36.50;33.25;;;;;18.33;77.59;102335.06;5114298;27;45493;-84
2022/04/28 08:55:16;;;;;;;;;38.00;30.50;;;;;18.39;77.31;102323.50;5081100;27;45436;-83
2022/04/28 08:57:41;;;;;;;;;34.75;30.25;;;;;18.47;76.66;102321.72;5093798;27;45572;-78
2022/04/28 09:00:07;;;;;;;;;46.75;35.50;;;;;18.52;76.73;102327.06;5110911;27;47494;-82
2022/04/28 09:02:33;;;;;;;;;40.25;32.00;;;;;18.57;76.92;102314.59;5109973;27;45523;-80
2022/04/28 09:05:04;;;;;;;;;38.25;33.25;;;;;18.66;76.74;102322.66;5110061;27;45477;-82
2022/04/28 09:07:40;;;;;;;;;38.00;31.75;;;;;18.72;76.35;102316.44;5108568;27;47170;-79
2022/04/28 09:10:32;;;;;;;;;31.25;29.50;;;;;18.81;75.48;102308.44;5108629;27;47563;-80
2022/04/28 09:15:54;;;;;;;;;34.50;29.75;;;;;18.93;75.72;102310.22;5108622;27;45232;-80
2022/04/28 09:18:20;;;;;;;;;34.50;29.50;;;;;18.97;75.35;102304.88;5112146;27;45311;-79
2022/04/28 09:20:47;;;;;;;;;34.25;30.00;;;;;18.99;74.15;102312.88;5109827;27;46608;-82
2022/04/28 09:23:12;;;;;;;;;33.50;30.00;;;;;19.00;73.45;102310.19;5111510;27;45157;-79
2022/04/28 09:25:39;;;;;;;;;33.25;30.25;;;;;19.02;73.64;102304.88;5104154;27;45479;-81
2022/04/28 09:28:06;;;;;;;;;32.00;29.25;;;;;19.04;74.16;102309.31;5110755;27;45631;-81
2022/04/28 09:30:49;;;;;;;;;33.75;29.25;;;;;19.05;73.29;102302.16;5108094;27;47430;-80
2022/04/28 09:33:17;;;;;;;;;17.50;11.50;;;;;19.10;73.08;102305.75;5107787;27;45393;-80
2022/04/28 09:35:45;;;;;;;;;30.00;28.25;;;;;19.14;73.45;102302.19;5100142;27;45346;-80
2022/04/28 09:38:12;;;;;;;;;26.75;25.75;;;;;19.21;73.53;102300.38;5113401;27;45548;-81
2022/04/28 09:43:30;;;;;;;;;25.75;24.25;;;;;19.39;72.94;102300.38;5078826;27;45470;-79
2022/04/28 09:45:56;;;;;;;;;26.33;25.33;;;;;19.49;71.39;102296.75;5096797;27;45821;-80
2022/04/28 09:48:21;;;;;;;;;39.00;34.75;;;;;19.58;72.27;102290.47;5097185;27;45345;-81
2022/04/28 09:50:48;;;;;;;;;29.00;26.00;;;;;19.66;71.26;102295.88;5104413;27;46758;-80
2022/04/28 09:53:15;;;;;;;;;37.00;27.33;;;;;19.74;70.89;102286.88;5101133;27;45433;-84
2022/04/28 09:55:42;;;;;;;;;23.67;23.33;;;;;19.84;70.45;102290.41;5104493;27;45536;-82
2022/04/28 09:58:09;;;;;;;;;26.33;24.00;;;;;19.92;70.00;102280.56;5103430;27;45484;-81
2022/04/28 10:00:34;;;;;;;;;24.33;22.33;;;;;20.02;70.31;102281.41;5106975;27;46539;-81
2022/04/28 10:03:04;;;;;;;;;26.33;24.00;;;;;20.10;67.47;102280.47;5090381;27;45534;-76
2022/04/28 10:05:29;;;;;;;;;24.67;22.00;;;;;20.17;66.71;102283.13;5114975;27;45411;-76
2022/04/28 10:07:55;;;;;;;;;25.00;21.00;;;;;20.21;67.53;102274.16;5095704;27;45350;-76
2022/04/28 10:10:21;;;;;;;;;22.33;22.33;;;;;20.26;66.82;102285.75;5108857;27;45760;-76
2022/04/28 10:12:47;;;;;;;;;24.33;24.33;;;;;20.31;66.38;102270.53;5113499;27;45547;-75
2022/04/28 10:15:14;;;;;;;;;29.67;25.33;;;;;20.34;65.95;102262.44;5106798;27;45886;-76
2022/04/28 10:17:47;;;;;;;;;25.33;24.00;;;;;20.45;66.81;102265.03;5092525;27;45585;-77
2022/04/28 10:20:31;;;;;;;;;24.67;21.33;;;;;20.52;66.36;102262.34;5113811;27;46063;-76
2022/04/28 10:23:00;;;;;;;;;27.67;25.00;;;;;20.61;66.47;102262.28;5090040;27;45555;-76
2022/04/28 10:32:22;;;;;;;;;26.33;23.67;;;;;20.80;65.93;102262.13;5112940;27;45362;-76
2022/04/28 10:33:48;;;;;;;;;18.33;17.00;;;;;20.97;65.64;102251.22;5115690;27;45472;-80
2022/04/28 10:36:20;;;;;;;;;19.33;15.33;;;;;21.06;63.99;102246.66;5109961;27;45503;-80
2022/04/28 10:39:07;;;;;;;;;17.00;14.33;;;;;21.15;61.66;102241.22;5111889;27;45355;-80
2022/04/28 10:41:33;;;;;;;;;14.00;13.33;;;;;21.24;60.30;102242.00;5089918;27;46866;-79
2022/04/28 10:44:00;;;;;;;;;15.33;13.00;;;;;21.29;60.63;102257.16;5115170;27;45512;-79
2022/04/28 10:46:30;;;;;;;;;13.67;12.33;;;;;21.31;59.71;102250.03;5074868;27;45311;-78
2022/04/28 10:49:01;;;;;;;;;12.33;11.33;;;;;21.31;59.20;102239.28;5115529;27;45437;-78
2022/04/28 10:51:30;;;;;;;;;14.00;12.67;;;;;21.30;57.05;102241.97;5090889;27;47519;-77
2022/04/28 10:54:11;;;;;;;;;14.67;13.00;;;;;21.28;57.86;102235.69;5090820;27;46937;-79
2022/04/28 10:56:39;;;;;;;;;14.00;12.33;;;;;21.28;57.50;102244.66;5107925;27;45269;-81
2022/04/28 10:59:32;;;;;;;;;12.00;11.00;;;;;21.31;56.42;102247.34;5111419;27;45593;-79
2022/04/28 11:02:09;;;;;;;;;10.33;10.33;;;;;21.36;56.00;102237.44;5105396;27;46942;-80
2022/04/28 11:04:36;;;;;;;;;11.00;11.00;;;;;21.43;55.78;102241.81;5107175;27;45456;-79
2022/04/28 11:07:06;;;;;;;;;10.00;10.00;;;;;21.55;55.94;102240.78;5104506;27;45370;-80
2022/04/28 11:09:39;;;;;;;;;10.33;10.33;;;;;21.73;55.13;102236.09;5091899;27;46190;-80
2022/04/28 11:12:10;;;;;;;;;13.00;10.67;;;;;21.92;54.14;102229.56;5117900;27;46622;-81
2022/04/28 11:14:50;;;;;;;;;14.00;10.67;;;;;22.14;52.33;102243.63;5113714;27;45270;-81
2022/04/28 11:17:17;;;;;;;;;14.00;11.00;;;;;22.29;51.70;102248.78;5110109;27;45465;-79
2022/04/28 11:19:44;;;;;;;;;12.00;11.00;;;;;22.44;50.68;102240.47;5111906;27;45445;-81
2022/04/28 11:22:11;;;;;;;;;12.00;11.00;;;;;22.53;51.14;102239.44;5118711;27;47597;-80
2022/04/28 11:24:43;;;;;;;;;8.00;8.00;;;;;22.60;50.83;102251.88;5106564;27;45524;-80
2022/04/28 11:27:19;;;;;;;;;12.33;12.33;;;;;22.64;49.29;102250.03;5101637;27;45478;-77
2022/04/28 11:29:46;;;;;;;;;11.67;11.00;;;;;;;;5086316;27;45565;-78
2022/04/28 11:32:13;;;;;;;;;11.00;10.00;;;;;22.69;50.06;102249.06;5108434;27;46740;-79
2022/04/28 11:34:39;;;;;;;;;11.00;11.00;;;;;22.67;49.56;102249.97;5093451;27;45634;-77
2022/04/28 11:37:15;;;;;;;;;12.33;12.33;;;;;22.68;51.10;102252.63;5099161;27;45382;-76
2022/04/28 11:39:45;;;;;;;;;8.33;8.33;;;;;22.68;45.81;102251.75;5100779;27;46720;-77